createdAt,value
2022-12-31T00:01:58.507Z,2.71
2022-12-31T00:07:00.593Z,2.69
2022-12-31T00:12:02.574Z,2.71
2022-12-31T00:17:04.651Z,2.71
2022-12-31T00:22:06.568Z,2.75
2022-12-31T00:27:08.610Z,2.76
2022-12-31T00:32:10.603Z,2.79
2022-12-31T00:37:12.538Z,2.80
2022-12-31T00:42:14.480Z,2.81
2022-12-31T00:47:16.566Z,2.81
2022-12-31T00:52:18.589Z,2.82
2022-12-31T00:57:20.605Z,2.82
2022-12-31T01:02:22.718Z,2.83
2022-12-31T01:07:24.754Z,2.86
2022-12-31T01:12:26.822Z,2.85
2022-12-31T01:17:28.868Z,2.85
2022-12-31T01:22:30.846Z,2.86
2022-12-31T01:27:32.756Z,2.87
2022-12-31T01:32:34.908Z,2.88
2022-12-31T01:37:36.880Z,2.89
2022-12-31T01:42:38.875Z,2.91
2022-12-31T01:47:48.603Z,2.96
2022-12-31T01:52:54.354Z,3.02
2022-12-31T01:58:01.416Z,3.08
2022-12-31T02:08:22.451Z,3.31
2022-12-31T02:13:24.613Z,3.52
2022-12-31T02:18:50.286Z,3.69
2022-12-31T02:24:25.974Z,3.76
2022-12-31T02:29:49.650Z,3.95
2022-12-31T02:34:57.139Z,3.96
2022-12-31T02:40:00.698Z,4.03
2022-12-31T02:45:02.732Z,4.10
2022-12-31T02:50:21.842Z,4.22
2022-12-31T02:55:42.463Z,4.28
2022-12-31T03:01:10.393Z,4.40
2022-12-31T03:06:13.823Z,4.33
2022-12-31T03:11:35.764Z,4.39
2022-12-31T03:16:37.860Z,4.40
2022-12-31T03:21:58.385Z,4.49
2022-12-31T03:27:00.424Z,4.55
2022-12-31T03:32:02.628Z,4.54
2022-12-31T03:37:04.641Z,4.71
2022-12-31T03:42:06.993Z,4.84
2022-12-31T03:47:09.021Z,4.81
2022-12-31T03:52:11.084Z,4.91
2022-12-31T03:57:13.209Z,4.96
2022-12-31T04:02:16.267Z,5.03
2022-12-31T04:07:18.653Z,5.09
2022-12-31T04:12:20.672Z,5.22
2022-12-31T04:17:22.824Z,5.22
2022-12-31T04:22:25.114Z,5.26
2022-12-31T04:27:27.170Z,5.24
2022-12-31T04:32:29.280Z,5.26
2022-12-31T04:37:31.259Z,5.57
2022-12-31T04:42:33.325Z,5.58
2022-12-31T04:47:35.369Z,5.65
2022-12-31T04:52:42.719Z,5.68
2022-12-31T04:57:45.142Z,5.73
2022-12-31T05:02:47.339Z,5.76
2022-12-31T05:07:49.392Z,5.84
2022-12-31T05:12:51.321Z,5.83
2022-12-31T05:17:53.259Z,5.84
2022-12-31T05:22:55.676Z,5.97
2022-12-31T05:27:57.617Z,6.03
2022-12-31T05:32:59.635Z,6.11
2022-12-31T05:38:02.146Z,6.11
2022-12-31T05:43:03.977Z,6.17
2022-12-31T05:48:06.387Z,6.16
2022-12-31T05:53:08.382Z,6.23
2022-12-31T05:58:10.450Z,6.23
2022-12-31T06:03:12.760Z,6.27
2022-12-31T06:08:14.803Z,6.22
2022-12-31T06:13:16.858Z,6.33
2022-12-31T06:18:18.981Z,6.33
2022-12-31T06:23:20.979Z,6.40
2022-12-31T06:28:22.976Z,6.50
2022-12-31T06:33:25.123Z,6.50
2022-12-31T06:38:28.840Z,6.52
2022-12-31T06:43:30.944Z,6.58
2022-12-31T06:48:33.098Z,6.61
2022-12-31T06:53:35.215Z,6.57
2022-12-31T06:58:37.926Z,6.65
2022-12-31T07:04:07.298Z,6.65
2022-12-31T07:09:23.893Z,6.73
2022-12-31T07:14:44.144Z,6.75
2022-12-31T07:20:09.553Z,6.65
2022-12-31T07:25:17.147Z,6.80
2022-12-31T07:30:27.941Z,6.83
2022-12-31T07:35:35.041Z,6.81
2022-12-31T07:41:09.932Z,6.89
2022-12-31T07:46:25.220Z,6.93
2022-12-31T07:51:27.640Z,6.90
2022-12-31T07:56:30.240Z,6.95
2022-12-31T08:01:40.181Z,7.02
2022-12-31T08:06:54.236Z,7.10
2022-12-31T08:12:01.430Z,7.09
2022-12-31T08:17:03.771Z,7.18
2022-12-31T08:22:24.422Z,7.21
2022-12-31T08:28:00.611Z,7.33
2022-12-31T08:33:18.609Z,7.40
2022-12-31T08:38:26.578Z,7.53
2022-12-31T08:43:28.507Z,7.57
2022-12-31T08:48:39.057Z,7.56
2022-12-31T08:53:41.466Z,7.66
2022-12-31T08:59:15.560Z,7.72
2022-12-31T09:05:07.320Z,7.78
2022-12-31T09:10:24.515Z,7.79
2022-12-31T09:15:38.540Z,7.85
2022-12-31T09:20:43.338Z,7.90
2022-12-31T09:26:07.501Z,7.96
2022-12-31T09:31:16.873Z,8.01
2022-12-31T09:36:50.033Z,8.00
2022-12-31T09:42:00.936Z,8.17
2022-12-31T09:47:42.295Z,8.30
2022-12-31T09:52:57.060Z,8.32
2022-12-31T09:58:36.885Z,8.47
2022-12-31T10:03:56.889Z,8.53
2022-12-31T10:09:10.987Z,8.60
2022-12-31T10:14:47.747Z,8.57
2022-12-31T10:20:21.000Z,8.75
2022-12-31T10:25:39.177Z,8.86
2022-12-31T10:30:54.423Z,8.96
2022-12-31T10:36:09.398Z,8.96
2022-12-31T10:41:43.711Z,8.98
2022-12-31T10:47:01.191Z,9.10
2022-12-31T10:52:24.375Z,9.14
2022-12-31T10:58:03.963Z,9.22
2022-12-31T11:03:28.822Z,9.27
2022-12-31T11:09:09.094Z,9.37
2022-12-31T11:14:50.700Z,9.50
2022-12-31T11:20:38.056Z,9.59
2022-12-31T11:25:52.111Z,9.69
2022-12-31T11:31:06.550Z,9.69
2022-12-31T11:36:37.592Z,9.83
2022-12-31T11:42:03.611Z,10.00
2022-12-31T11:47:26.608Z,10.10
2022-12-31T11:52:52.346Z,10.21
2022-12-31T11:57:55.508Z,10.26
2022-12-31T12:03:03.944Z,10.31
2022-12-31T12:08:06.536Z,10.46
2022-12-31T12:13:24.249Z,10.72
2022-12-31T12:18:41.113Z,10.97
2022-12-31T12:23:56.919Z,11.12
2022-12-31T12:29:26.617Z,11.24
2022-12-31T12:34:46.063Z,11.47
2022-12-31T12:40:02.955Z,11.36
2022-12-31T12:45:16.229Z,11.38
2022-12-31T12:50:23.906Z,11.41
2022-12-31T12:55:58.959Z,11.40
2022-12-31T13:01:31.580Z,11.38
2022-12-31T13:06:58.580Z,11.35
2022-12-31T13:12:07.557Z,11.37
2022-12-31T13:17:33.164Z,11.31
2022-12-31T13:22:40.755Z,11.44
2022-12-31T13:27:49.304Z,11.46
2022-12-31T13:33:16.377Z,11.46
2022-12-31T13:38:34.088Z,11.45
2022-12-31T13:44:11.373Z,11.45
2022-12-31T13:49:19.392Z,11.44
2022-12-31T13:54:39.886Z,11.45
2022-12-31T13:59:47.068Z,11.42
2022-12-31T14:04:56.930Z,11.46
2022-12-31T14:09:59.395Z,11.50
2022-12-31T14:15:46.068Z,11.50
2022-12-31T14:20:55.035Z,11.52
2022-12-31T14:26:03.849Z,11.55
2022-12-31T14:31:19.996Z,11.56
2022-12-31T14:36:52.768Z,11.61
2022-12-31T14:42:29.558Z,11.62
2022-12-31T14:48:07.094Z,11.64
2022-12-31T14:53:26.640Z,11.65
2022-12-31T14:58:44.799Z,11.66
2022-12-31T15:03:47.094Z,11.62
2022-12-31T15:09:26.558Z,11.59
2022-12-31T15:14:51.318Z,11.60
2022-12-31T15:20:23.973Z,11.59
2022-12-31T15:25:40.508Z,11.58
2022-12-31T15:30:49.069Z,11.58
2022-12-31T15:35:54.999Z,11.57
2022-12-31T15:40:58.355Z,11.55
2022-12-31T15:46:02.151Z,11.54
2022-12-31T15:51:05.698Z,11.57
2022-12-31T15:56:17.332Z,11.60
2022-12-31T16:01:25.286Z,11.56
2022-12-31T16:06:30.740Z,11.58
2022-12-31T16:11:37.610Z,11.55
2022-12-31T16:16:39.654Z,11.52
2022-12-31T16:21:46.387Z,11.54
2022-12-31T16:26:52.027Z,11.52
2022-12-31T16:31:54.871Z,11.53
2022-12-31T16:37:04.716Z,11.54
2022-12-31T16:42:20.323Z,11.57
2022-12-31T16:47:36.104Z,11.60
2022-12-31T16:52:41.251Z,11.62
2022-12-31T16:57:46.682Z,11.62
2022-12-31T17:02:53.515Z,11.62
2022-12-31T17:07:56.011Z,11.63
2022-12-31T17:13:27.743Z,11.64
2022-12-31T17:18:25.931Z,11.71
2022-12-31T17:23:31.813Z,11.75
2022-12-31T17:28:45.274Z,11.78
2022-12-31T17:33:47.791Z,11.78
2022-12-31T17:38:50.780Z,11.80
2022-12-31T17:43:57.205Z,11.85
2022-12-31T17:49:03.977Z,11.83
2022-12-31T17:54:16.345Z,11.80
2022-12-31T17:59:24.149Z,11.85
2022-12-31T18:04:27.107Z,11.85
2022-12-31T18:09:29.400Z,11.81
2022-12-31T18:14:31.781Z,11.80
2022-12-31T18:24:55.871Z,11.79
2022-12-31T18:30:04.119Z,11.78
2022-12-31T18:35:33.277Z,11.77
2022-12-31T18:40:36.612Z,11.75
2022-12-31T18:45:38.758Z,11.72
2022-12-31T18:50:41.678Z,11.73
2022-12-31T18:55:55.805Z,11.74
2022-12-31T19:00:58.081Z,11.76
2022-12-31T19:06:00.298Z,11.81
2022-12-31T19:11:02.598Z,11.80
2022-12-31T19:16:04.923Z,11.79
2022-12-31T19:21:07.302Z,11.80
2022-12-31T19:26:15.401Z,11.80
2022-12-31T19:31:18.448Z,11.84
2022-12-31T19:36:21.065Z,11.82
2022-12-31T19:41:23.176Z,11.86
2022-12-31T19:46:25.560Z,11.92
2022-12-31T19:51:27.619Z,11.93
2022-12-31T19:56:29.750Z,11.93
2022-12-31T20:01:32.081Z,11.90
2022-12-31T20:06:34.326Z,11.96
2022-12-31T20:11:36.422Z,11.94
2022-12-31T20:16:38.517Z,11.98
2022-12-31T20:21:42.256Z,11.97
2022-12-31T20:26:44.324Z,12.01
2022-12-31T20:31:46.528Z,11.98
2022-12-31T20:36:48.881Z,12.03
2022-12-31T20:41:51.099Z,11.98
2022-12-31T20:46:53.142Z,11.97
2022-12-31T20:51:55.187Z,11.97
2022-12-31T20:56:57.160Z,11.92
2022-12-31T21:07:21.253Z,11.88
2022-12-31T21:12:41.372Z,11.88
2022-12-31T21:17:43.455Z,11.82
2022-12-31T21:22:45.581Z,11.79
2022-12-31T21:27:47.753Z,11.81
2022-12-31T21:32:49.897Z,11.77
2022-12-31T21:37:58.480Z,11.77
2022-12-31T21:43:03.092Z,11.76
2022-12-31T21:48:22.223Z,11.74
2022-12-31T21:53:32.126Z,11.75
2022-12-31T21:58:42.170Z,11.78
2022-12-31T22:03:44.790Z,11.74
2022-12-31T22:08:55.019Z,11.74
2022-12-31T22:13:57.853Z,11.73
2022-12-31T22:19:00.063Z,11.77
2022-12-31T22:24:03.440Z,11.79
2022-12-31T22:29:05.461Z,11.78
2022-12-31T22:34:07.506Z,11.74
2022-12-31T22:39:14.595Z,11.75
2022-12-31T22:44:36.549Z,11.77
2022-12-31T22:49:38.420Z,11.76
2022-12-31T22:54:40.512Z,11.75
2022-12-31T22:59:42.610Z,11.76
2022-12-31T23:04:44.701Z,11.76
2022-12-31T23:10:05.495Z,11.75
2022-12-31T23:15:28.911Z,11.74
2022-12-31T23:20:49.186Z,11.73
2022-12-31T23:25:52.754Z,11.72
2022-12-31T23:30:54.786Z,11.72
2022-12-31T23:36:07.191Z,11.75
2022-12-31T23:41:22.313Z,11.74
2022-12-31T23:46:24.832Z,11.71
2022-12-31T23:51:26.961Z,11.75
2022-12-31T23:56:29.006Z,11.79
